createdAt,value
2019-03-22T00:01:14.511Z,82.50
2019-03-22T00:03:35.134Z,82.50
2019-03-22T00:05:55.616Z,82.00
2019-03-22T00:08:16.079Z,82.60
2019-03-22T00:10:36.676Z,82.90
2019-03-22T00:12:57.384Z,83.10
2019-03-22T00:15:17.936Z,83.40
2019-03-22T00:17:38.431Z,83.80
2019-03-22T00:19:59.050Z,83.80
2019-03-22T00:22:19.708Z,83.80
2019-03-22T00:24:40.246Z,83.90
2019-03-22T00:27:00.888Z,83.90
2019-03-22T00:29:22.541Z,83.70
2019-03-22T00:31:43.103Z,83.40
2019-03-22T00:34:03.691Z,83.20
2019-03-22T00:36:24.213Z,83.20
2019-03-22T00:38:44.705Z,83.90
2019-03-22T00:41:05.395Z,84.20
2019-03-22T00:43:26.005Z,84.50
2019-03-22T00:45:46.612Z,84.40
2019-03-22T00:48:07.187Z,84.50
2019-03-22T00:50:27.737Z,85.10
2019-03-22T00:52:48.402Z,84.90
2019-03-22T00:55:09.271Z,85.00
2019-03-22T00:57:29.963Z,84.90
2019-03-22T00:59:50.657Z,84.90
2019-03-22T01:02:18.501Z,84.70
2019-03-22T01:04:41.562Z,84.60
2019-03-22T01:07:03.276Z,85.10
2019-03-22T01:09:23.819Z,85.10
2019-03-22T01:11:44.436Z,85.10
2019-03-22T01:14:06.515Z,84.90
2019-03-22T01:16:27.010Z,85.00
2019-03-22T01:18:47.567Z,85.20
2019-03-22T01:21:08.034Z,86.00
2019-03-22T01:23:29.465Z,85.90
2019-03-22T01:25:51.087Z,85.20
2019-03-22T01:28:11.736Z,85.40
2019-03-22T01:30:42.071Z,85.80
2019-03-22T01:33:02.761Z,86.80
2019-03-22T01:35:23.354Z,86.30
2019-03-22T01:37:44.024Z,86.30
2019-03-22T01:40:06.814Z,87.40
2019-03-22T01:42:27.239Z,86.70
2019-03-22T01:44:47.819Z,86.90
2019-03-22T01:47:08.377Z,86.90
2019-03-22T01:49:29.019Z,86.90
2019-03-22T01:51:51.258Z,87.80
2019-03-22T01:54:11.783Z,87.20
2019-03-22T01:56:32.306Z,87.10
2019-03-22T01:58:52.878Z,87.10
2019-03-22T02:01:13.462Z,86.90
2019-03-22T02:03:34.011Z,87.10
2019-03-22T02:05:55.557Z,87.10
2019-03-22T02:08:17.664Z,87.20
2019-03-22T02:10:38.301Z,87.20
2019-03-22T02:12:58.928Z,88.20
2019-03-22T02:15:19.517Z,87.90
2019-03-22T02:17:40.158Z,88.20
2019-03-22T02:20:00.693Z,88.20
2019-03-22T02:22:21.236Z,88.00
2019-03-22T02:24:41.689Z,87.80
2019-03-22T02:27:02.305Z,88.10
2019-03-22T02:29:22.854Z,87.60
2019-03-22T02:31:43.324Z,87.60
2019-03-22T02:34:03.820Z,88.00
2019-03-22T02:36:24.377Z,87.80
2019-03-22T02:38:44.939Z,87.80
2019-03-22T02:41:05.616Z,88.00
2019-03-22T02:43:26.110Z,88.60
2019-03-22T02:45:46.817Z,89.50
2019-03-22T02:48:13.085Z,89.80
2019-03-22T02:50:33.656Z,89.00
2019-03-22T02:52:54.197Z,88.80
2019-03-22T02:55:15.047Z,88.50
2019-03-22T02:57:36.259Z,88.70
2019-03-22T02:59:56.852Z,89.10
2019-03-22T03:02:17.432Z,89.30
2019-03-22T03:04:37.963Z,89.80
2019-03-22T03:06:58.570Z,90.00
2019-03-22T03:09:19.121Z,89.40
2019-03-22T03:11:39.685Z,89.50
2019-03-22T03:14:00.233Z,89.10
2019-03-22T03:16:20.770Z,89.20
2019-03-22T03:18:41.478Z,89.30
2019-03-22T03:21:02.162Z,89.40
2019-03-22T03:23:22.711Z,89.40
2019-03-22T03:25:43.338Z,89.60
2019-03-22T03:28:04.009Z,90.00
2019-03-22T03:30:24.549Z,90.40
2019-03-22T03:32:45.176Z,90.30
2019-03-22T03:35:06.708Z,90.00
2019-03-22T03:37:27.285Z,89.70
2019-03-22T03:39:47.900Z,90.00
2019-03-22T03:42:09.257Z,89.40
2019-03-22T03:44:29.879Z,89.30
2019-03-22T03:46:50.571Z,89.30
2019-03-22T03:49:11.117Z,89.70
2019-03-22T03:51:31.692Z,90.00
2019-03-22T03:53:52.296Z,89.90
2019-03-22T03:56:12.896Z,89.70
2019-03-22T03:58:33.458Z,89.50
2019-03-22T04:00:54.013Z,89.80
2019-03-22T04:03:14.527Z,90.10
2019-03-22T04:05:35.090Z,90.00
2019-03-22T04:07:55.620Z,90.00
2019-03-22T04:10:16.425Z,90.80
2019-03-22T04:12:36.989Z,90.80
2019-03-22T04:14:57.531Z,90.20
2019-03-22T04:17:23.745Z,90.10
2019-03-22T04:19:44.306Z,90.00
2019-03-22T04:22:06.553Z,90.30
2019-03-22T04:24:26.434Z,90.30
2019-03-22T04:26:46.888Z,90.30
2019-03-22T04:29:08.490Z,90.40
2019-03-22T04:31:29.294Z,90.40
2019-03-22T04:33:49.960Z,90.40
2019-03-22T04:36:10.567Z,90.30
2019-03-22T04:38:31.244Z,90.30
2019-03-22T04:40:51.707Z,90.60
2019-03-22T04:43:12.326Z,90.50
2019-03-22T04:45:35.890Z,90.40
2019-03-22T04:48:11.613Z,90.40
2019-03-22T04:50:34.017Z,90.40
2019-03-22T04:52:55.155Z,90.50
2019-03-22T04:55:16.145Z,91.00
2019-03-22T04:57:37.755Z,90.60
2019-03-22T05:00:00.362Z,90.60
2019-03-22T05:02:22.881Z,90.70
2019-03-22T05:04:45.766Z,90.70
2019-03-22T05:07:06.123Z,90.60
2019-03-22T05:09:29.073Z,90.80
2019-03-22T05:11:49.961Z,90.70
2019-03-22T05:14:12.085Z,90.70
2019-03-22T05:16:34.248Z,90.70
2019-03-22T05:18:55.279Z,90.80
2019-03-22T05:21:16.795Z,90.80
2019-03-22T05:23:38.493Z,90.60
2019-03-22T05:26:01.649Z,90.60
2019-03-22T05:28:22.333Z,90.70
2019-03-22T05:31:04.964Z,90.70
2019-03-22T05:33:25.442Z,90.60
2019-03-22T05:35:47.065Z,90.50
2019-03-22T05:38:07.701Z,90.40
2019-03-22T05:40:28.350Z,90.40
2019-03-22T05:42:48.920Z,90.50
2019-03-22T05:45:09.623Z,90.60
2019-03-22T05:47:30.382Z,90.50
2019-03-22T05:49:50.910Z,90.20
2019-03-22T05:52:11.544Z,90.20
2019-03-22T05:54:32.168Z,89.90
2019-03-22T05:57:12.528Z,89.80
2019-03-22T05:59:23.925Z,89.60
2019-03-22T06:01:53.314Z,88.80
2019-03-22T06:04:14.014Z,88.60
2019-03-22T06:06:34.470Z,88.30
2019-03-22T06:08:57.707Z,88.60
2019-03-22T06:11:18.291Z,88.80
2019-03-22T06:13:39.132Z,88.00
2019-03-22T06:15:59.793Z,87.90
2019-03-22T06:18:24.891Z,87.70
2019-03-22T06:20:45.585Z,85.90
2019-03-22T06:23:25.738Z,85.90
2019-03-22T06:25:46.542Z,84.90
2019-03-22T06:28:07.560Z,83.20
2019-03-22T06:30:28.657Z,81.00
2019-03-22T06:32:49.528Z,79.40
2019-03-22T06:35:10.420Z,77.20
2019-03-22T06:37:31.336Z,73.50
2019-03-22T06:39:52.091Z,70.20
2019-03-22T06:42:12.972Z,65.70
2019-03-22T06:44:33.909Z,57.30
2019-03-22T06:46:54.909Z,52.30
2019-03-22T06:49:15.810Z,51.00
2019-03-22T06:51:36.674Z,50.20
2019-03-22T06:53:57.033Z,54.10
2019-03-22T06:56:17.304Z,56.20
2019-03-22T06:58:38.189Z,50.90
2019-03-22T07:00:58.997Z,46.10
2019-03-22T07:03:20.054Z,43.20
2019-03-22T07:05:40.609Z,41.80
2019-03-22T07:08:01.331Z,40.20
2019-03-22T07:10:22.122Z,38.80
2019-03-22T07:12:42.637Z,38.10
2019-03-22T07:15:04.806Z,36.20
2019-03-22T07:17:26.027Z,36.00
2019-03-22T07:19:46.345Z,34.90
2019-03-22T07:22:06.575Z,35.50
2019-03-22T07:24:26.835Z,35.10
2019-03-22T07:26:47.415Z,34.70
2019-03-22T07:29:07.965Z,34.10
2019-03-22T07:31:28.587Z,32.90
2019-03-22T07:33:49.299Z,32.70
2019-03-22T07:36:09.751Z,32.50
2019-03-22T07:38:30.290Z,33.20
2019-03-22T07:40:50.827Z,34.90
2019-03-22T07:43:11.470Z,34.30
2019-03-22T07:45:32.005Z,34.00
2019-03-22T07:47:52.603Z,32.60
2019-03-22T07:50:13.872Z,30.70
2019-03-22T07:52:34.318Z,30.30
2019-03-22T07:54:54.710Z,29.80
2019-03-22T07:57:15.127Z,30.50
2019-03-22T07:59:35.438Z,29.60
2019-03-22T08:01:55.946Z,31.00
2019-03-22T08:04:16.721Z,29.30
2019-03-22T08:06:37.035Z,29.10
2019-03-22T08:08:57.354Z,28.60
2019-03-22T08:11:17.904Z,28.40
2019-03-22T08:13:38.340Z,30.50
2019-03-22T08:15:58.700Z,30.80
2019-03-22T08:18:19.255Z,32.30
2019-03-22T08:20:39.642Z,33.10
2019-03-22T08:23:00.184Z,31.90
2019-03-22T08:25:20.912Z,33.30
2019-03-22T08:27:41.640Z,33.00
2019-03-22T08:30:02.298Z,32.50
2019-03-22T08:32:22.711Z,31.70
2019-03-22T08:34:43.258Z,31.50
2019-03-22T08:37:04.167Z,30.90
2019-03-22T08:39:24.805Z,31.40
2019-03-22T08:41:45.008Z,32.10
2019-03-22T08:44:05.435Z,32.40
2019-03-22T08:46:25.784Z,32.10
2019-03-22T08:48:46.134Z,31.30
2019-03-22T08:51:06.573Z,33.60
2019-03-22T08:53:26.900Z,33.30
2019-03-22T08:55:47.522Z,33.30
2019-03-22T08:58:07.787Z,34.20
2019-03-22T09:00:38.518Z,35.40
2019-03-22T09:02:50.237Z,35.30
2019-03-22T09:05:16.495Z,36.10
2019-03-22T09:07:36.852Z,33.60
2019-03-22T09:09:57.289Z,33.50
2019-03-22T09:12:19.753Z,33.20
2019-03-22T09:14:40.037Z,34.60
2019-03-22T09:17:00.327Z,36.00
2019-03-22T09:19:20.594Z,34.50
2019-03-22T09:21:40.814Z,34.20
2019-03-22T09:24:01.101Z,32.60
2019-03-22T09:26:21.449Z,33.10
2019-03-22T09:28:42.849Z,31.30
2019-03-22T09:31:10.402Z,31.80
2019-03-22T09:33:25.151Z,33.20
2019-03-22T09:35:45.689Z,33.60
2019-03-22T09:38:12.697Z,34.50
2019-03-22T09:40:27.827Z,33.10
2019-03-22T09:42:49.226Z,32.70
2019-03-22T09:45:14.207Z,33.70
2019-03-22T09:47:33.847Z,35.20
2019-03-22T09:49:54.351Z,36.70
2019-03-22T09:52:14.612Z,34.20
2019-03-22T09:54:35.006Z,34.40
2019-03-22T09:56:55.280Z,33.60
2019-03-22T09:59:16.452Z,33.20
2019-03-22T10:01:36.828Z,33.60
2019-03-22T10:03:57.163Z,32.80
2019-03-22T10:06:17.494Z,32.00
2019-03-22T10:08:38.102Z,31.80
2019-03-22T10:10:58.346Z,32.60
2019-03-22T10:13:18.744Z,30.60
2019-03-22T10:15:38.943Z,29.00
2019-03-22T10:17:59.285Z,29.60
2019-03-22T10:20:21.195Z,29.00
2019-03-22T10:22:41.416Z,29.40
2019-03-22T10:25:01.618Z,28.90
2019-03-22T10:27:21.891Z,29.20
2019-03-22T10:29:42.190Z,30.50
2019-03-22T10:32:02.663Z,29.60
2019-03-22T10:34:22.917Z,28.80
2019-03-22T10:36:43.241Z,29.00
2019-03-22T10:39:07.254Z,28.90
2019-03-22T10:41:27.461Z,29.10
2019-03-22T10:43:47.491Z,29.10
2019-03-22T10:46:08.101Z,29.00
2019-03-22T10:48:28.297Z,27.50
2019-03-22T10:50:49.447Z,27.30
2019-03-22T10:53:09.455Z,28.10
2019-03-22T10:55:30.670Z,28.40
2019-03-22T10:57:51.293Z,28.70
2019-03-22T11:00:14.798Z,27.60
2019-03-22T11:02:35.277Z,27.00
2019-03-22T11:04:55.772Z,27.30
2019-03-22T11:07:16.097Z,27.80
2019-03-22T11:09:36.627Z,28.10
2019-03-22T11:11:57.147Z,27.20
2019-03-22T11:14:17.392Z,26.40
2019-03-22T11:16:37.631Z,26.60
2019-03-22T11:18:59.464Z,26.20
2019-03-22T11:21:20.882Z,26.00
2019-03-22T11:23:40.846Z,25.80
2019-03-22T11:26:04.437Z,27.00
2019-03-22T11:28:23.275Z,27.20
2019-03-22T11:30:43.302Z,27.10
2019-03-22T11:33:03.715Z,26.50
2019-03-22T11:35:23.985Z,25.70
2019-03-22T11:37:44.373Z,25.70
2019-03-22T11:40:07.742Z,27.20
2019-03-22T11:42:29.132Z,27.10
2019-03-22T11:44:49.417Z,26.70
2019-03-22T11:47:09.824Z,25.90
2019-03-22T11:49:30.060Z,26.20
2019-03-22T11:51:50.383Z,25.90
2019-03-22T11:54:10.725Z,26.10
2019-03-22T11:56:31.084Z,26.20
2019-03-22T11:58:51.498Z,26.00
2019-03-22T12:01:19.275Z,25.00
2019-03-22T12:03:33.809Z,25.00
2019-03-22T12:05:54.116Z,25.40
2019-03-22T12:08:14.414Z,25.60
2019-03-22T12:10:34.600Z,26.00
2019-03-22T12:12:54.917Z,25.10
2019-03-22T12:15:19.903Z,26.30
2019-03-22T12:17:40.200Z,26.10
2019-03-22T12:20:00.455Z,25.60
2019-03-22T12:22:20.755Z,26.00
2019-03-22T12:24:41.118Z,25.80
2019-03-22T12:27:01.401Z,25.30
2019-03-22T12:29:21.616Z,25.30
2019-03-22T12:31:41.990Z,25.00
2019-03-22T12:34:04.174Z,24.90
2019-03-22T12:36:24.732Z,23.90
2019-03-22T12:38:45.087Z,23.30
2019-03-22T12:41:05.466Z,24.10
2019-03-22T12:43:25.921Z,23.50
2019-03-22T12:45:46.226Z,23.90
2019-03-22T12:48:06.483Z,23.80
2019-03-22T12:50:27.064Z,23.70
2019-03-22T12:52:47.420Z,22.70
2019-03-22T12:55:09.531Z,22.60
2019-03-22T12:57:29.765Z,22.90
2019-03-22T12:59:50.078Z,22.90
2019-03-22T13:02:10.499Z,24.10
2019-03-22T13:04:30.722Z,24.10
2019-03-22T13:06:53.082Z,24.60
2019-03-22T13:09:12.880Z,24.30
2019-03-22T13:11:33.254Z,23.40
2019-03-22T13:13:53.508Z,23.30
2019-03-22T13:16:13.774Z,22.20
2019-03-22T13:18:33.948Z,22.30
2019-03-22T13:20:54.423Z,22.30
2019-03-22T13:23:16.418Z,22.60
2019-03-22T13:25:37.761Z,22.70
2019-03-22T13:27:58.642Z,22.20
2019-03-22T13:30:30.824Z,22.40
2019-03-22T13:32:52.233Z,21.80
2019-03-22T13:35:13.677Z,22.60
2019-03-22T13:37:33.704Z,22.50
2019-03-22T13:39:53.691Z,22.20
2019-03-22T13:42:13.758Z,22.50
2019-03-22T13:44:33.720Z,22.70
2019-03-22T13:46:53.755Z,22.50
2019-03-22T13:49:14.795Z,21.70
2019-03-22T13:51:37.118Z,21.30
2019-03-22T13:53:58.098Z,21.50
2019-03-22T13:56:18.054Z,21.00
2019-03-22T13:58:38.044Z,21.30
2019-03-22T14:00:58.077Z,22.50
2019-03-22T14:03:18.417Z,21.50
2019-03-22T14:05:38.630Z,22.30
2019-03-22T14:07:58.949Z,21.90
2019-03-22T14:10:30.597Z,22.10
2019-03-22T14:12:50.885Z,21.60
2019-03-22T14:15:11.508Z,22.00
2019-03-22T14:17:31.721Z,22.40
2019-03-22T14:19:52.037Z,22.70
2019-03-22T14:22:12.255Z,22.60
2019-03-22T14:24:32.198Z,22.50
2019-03-22T14:26:52.200Z,22.60
2019-03-22T14:29:12.459Z,22.90
2019-03-22T14:31:32.763Z,22.80
2019-03-22T14:33:53.076Z,22.60
2019-03-22T14:36:13.587Z,23.40
2019-03-22T14:38:33.819Z,23.60
2019-03-22T14:40:54.178Z,24.40
2019-03-22T14:43:14.495Z,23.60
2019-03-22T14:45:34.807Z,24.30
2019-03-22T14:47:55.305Z,23.50
2019-03-22T14:50:15.839Z,23.20
2019-03-22T14:52:36.691Z,23.80
2019-03-22T14:54:56.924Z,24.10
2019-03-22T14:57:17.168Z,24.20
2019-03-22T14:59:37.362Z,24.70
2019-03-22T15:01:57.580Z,25.20
2019-03-22T15:04:20.545Z,25.40
2019-03-22T15:06:40.707Z,25.90
2019-03-22T15:09:01.178Z,25.70
2019-03-22T15:11:27.390Z,25.90
2019-03-22T15:13:58.446Z,25.30
2019-03-22T15:16:29.220Z,25.50
2019-03-22T15:19:07.597Z,25.40
2019-03-22T15:21:32.472Z,25.50
2019-03-22T15:24:10.952Z,25.30
2019-03-22T15:26:49.387Z,25.40
2019-03-22T15:29:11.654Z,24.00
2019-03-22T15:31:53.374Z,23.40
2019-03-22T15:34:29.937Z,23.20
2019-03-22T15:36:57.613Z,23.10
2019-03-22T15:39:34.879Z,23.10
2019-03-22T15:41:55.170Z,24.20
2019-03-22T15:44:15.558Z,25.50
2019-03-22T15:46:35.839Z,25.10
2019-03-22T15:48:57.022Z,25.60
2019-03-22T15:51:17.376Z,25.70
2019-03-22T15:53:37.581Z,26.20
2019-03-22T15:55:57.822Z,27.00
2019-03-22T15:58:18.063Z,27.10
2019-03-22T16:00:38.377Z,27.50
2019-03-22T16:03:04.839Z,27.70
2019-03-22T16:05:25.164Z,27.80
2019-03-22T16:07:45.667Z,27.50
2019-03-22T16:10:07.763Z,27.50
2019-03-22T16:12:28.446Z,27.90
2019-03-22T16:14:48.682Z,28.10
2019-03-22T16:17:09.019Z,28.30
2019-03-22T16:19:29.293Z,28.90
2019-03-22T16:21:49.670Z,28.70
2019-03-22T16:24:09.997Z,29.30
2019-03-22T16:26:30.233Z,29.60
2019-03-22T16:28:50.469Z,29.40
2019-03-22T16:31:10.744Z,30.30
2019-03-22T16:33:30.967Z,30.00
2019-03-22T16:35:51.249Z,30.30
2019-03-22T16:38:12.585Z,30.40
2019-03-22T16:40:33.389Z,30.90
2019-03-22T16:42:53.742Z,30.60
2019-03-22T16:45:16.998Z,31.00
2019-03-22T16:47:55.060Z,31.20
2019-03-22T16:50:34.802Z,31.30
2019-03-22T16:52:55.247Z,31.90
2019-03-22T16:55:15.909Z,32.80
2019-03-22T16:57:35.903Z,33.90
2019-03-22T16:59:55.965Z,35.10
2019-03-22T17:02:16.088Z,35.40
2019-03-22T17:04:38.788Z,35.60
2019-03-22T17:06:58.929Z,36.30
2019-03-22T17:09:19.033Z,37.10
2019-03-22T17:11:39.054Z,38.60
2019-03-22T17:13:59.566Z,39.40
2019-03-22T17:16:19.562Z,39.90
2019-03-22T17:18:39.714Z,40.60
2019-03-22T17:21:00.058Z,41.00
2019-03-22T17:23:20.925Z,41.40
2019-03-22T17:25:41.969Z,42.00
2019-03-22T17:28:02.730Z,42.40
2019-03-22T17:30:23.532Z,43.10
2019-03-22T17:32:44.473Z,43.90
2019-03-22T17:35:07.465Z,44.00
2019-03-22T17:37:27.653Z,44.30
2019-03-22T17:39:48.119Z,44.60
2019-03-22T17:42:08.095Z,45.10
2019-03-22T17:44:28.742Z,45.50
2019-03-22T17:46:48.690Z,46.00
2019-03-22T17:49:08.735Z,46.30
2019-03-22T17:51:30.256Z,46.80
2019-03-22T17:53:50.257Z,47.30
2019-03-22T17:56:10.481Z,47.80
2019-03-22T17:58:30.600Z,47.80
2019-03-22T18:00:51.413Z,47.40
2019-03-22T18:03:12.049Z,47.30
2019-03-22T18:05:32.026Z,47.00
2019-03-22T18:07:52.797Z,47.70
2019-03-22T18:10:13.743Z,49.50
2019-03-22T18:12:34.440Z,50.60
2019-03-22T18:14:55.064Z,51.10
2019-03-22T18:17:15.589Z,51.30
2019-03-22T18:19:36.151Z,51.50
2019-03-22T18:21:56.132Z,51.60
2019-03-22T18:24:16.604Z,51.50
2019-03-22T18:26:37.214Z,51.00
2019-03-22T18:28:58.062Z,50.40
2019-03-22T18:31:18.590Z,50.30
2019-03-22T18:33:39.177Z,50.40
2019-03-22T18:35:59.638Z,50.70
2019-03-22T18:38:20.188Z,51.60
2019-03-22T18:40:40.667Z,52.80
2019-03-22T18:43:00.664Z,53.20
2019-03-22T18:45:21.169Z,53.40
2019-03-22T18:47:42.270Z,52.90
2019-03-22T18:50:03.105Z,53.20
2019-03-22T18:52:23.189Z,53.50
2019-03-22T18:54:43.814Z,53.40
2019-03-22T18:57:05.660Z,54.20
2019-03-22T18:59:26.211Z,54.90
2019-03-22T19:01:47.832Z,55.60
2019-03-22T19:04:10.864Z,55.90
2019-03-22T19:06:30.998Z,56.00
2019-03-22T19:08:52.101Z,55.70
2019-03-22T19:11:12.626Z,55.00
2019-03-22T19:13:33.264Z,55.30
2019-03-22T19:15:53.785Z,55.50
2019-03-22T19:18:15.165Z,55.70
2019-03-22T19:20:35.782Z,56.30
2019-03-22T19:22:56.490Z,56.90
2019-03-22T19:25:17.209Z,57.80
2019-03-22T19:27:37.813Z,56.80
2019-03-22T19:29:58.471Z,57.20
2019-03-22T19:32:19.047Z,57.60
2019-03-22T19:34:39.604Z,58.00
2019-03-22T19:37:00.368Z,57.80
2019-03-22T19:39:20.998Z,58.10
2019-03-22T19:41:41.590Z,58.00
2019-03-22T19:44:02.154Z,58.30
2019-03-22T19:46:22.725Z,58.90
2019-03-22T19:48:43.349Z,59.20
2019-03-22T19:51:04.244Z,59.40
2019-03-22T19:53:25.206Z,59.30
2019-03-22T19:55:46.764Z,59.00
2019-03-22T19:58:07.431Z,59.20
2019-03-22T20:00:28.160Z,59.80
2019-03-22T20:02:49.372Z,60.60
2019-03-22T20:05:10.253Z,61.00
2019-03-22T20:07:30.862Z,61.80
2019-03-22T20:09:51.462Z,61.90
2019-03-22T20:12:12.151Z,61.50
2019-03-22T20:14:33.164Z,62.00
2019-03-22T20:16:53.771Z,61.60
2019-03-22T20:19:14.340Z,61.60
2019-03-22T20:21:34.904Z,61.40
2019-03-22T20:23:55.419Z,61.60
2019-03-22T20:26:15.881Z,62.40
2019-03-22T20:28:36.460Z,62.50
2019-03-22T20:30:57.382Z,62.40
2019-03-22T20:33:17.997Z,63.00
2019-03-22T20:35:38.649Z,63.00
2019-03-22T20:37:59.268Z,63.50
2019-03-22T20:40:20.330Z,63.80
2019-03-22T20:42:40.880Z,64.00
2019-03-22T20:45:01.601Z,63.60
2019-03-22T20:47:22.348Z,63.80
2019-03-22T20:49:42.806Z,64.10
2019-03-22T20:52:03.666Z,64.70
2019-03-22T20:54:24.368Z,65.20
2019-03-22T20:56:45.167Z,65.00
2019-03-22T20:59:10.278Z,65.30
2019-03-22T21:01:30.337Z,66.40
2019-03-22T21:03:50.814Z,66.00
2019-03-22T21:06:12.344Z,66.00
2019-03-22T21:08:34.566Z,65.70
2019-03-22T21:10:55.215Z,66.00
2019-03-22T21:13:16.929Z,66.60
2019-03-22T21:15:37.440Z,66.70
2019-03-22T21:17:58.036Z,67.50
2019-03-22T21:20:18.944Z,67.70
2019-03-22T21:22:39.630Z,67.50
2019-03-22T21:25:00.336Z,67.60
2019-03-22T21:27:23.716Z,67.80
2019-03-22T21:29:44.485Z,68.10
2019-03-22T21:32:04.367Z,68.40
2019-03-22T21:34:24.965Z,68.70
2019-03-22T21:36:45.519Z,69.40
2019-03-22T21:39:06.924Z,69.90
2019-03-22T21:41:27.564Z,69.80
2019-03-22T21:43:48.193Z,69.50
2019-03-22T21:46:08.671Z,70.20
2019-03-22T21:48:29.240Z,69.90
2019-03-22T21:50:49.810Z,69.80
2019-03-22T21:53:11.434Z,69.80
2019-03-22T21:55:31.928Z,70.00
2019-03-22T21:57:52.729Z,70.10
2019-03-22T22:00:15.361Z,70.00
2019-03-22T22:02:35.836Z,71.00
2019-03-22T22:04:56.403Z,71.30
2019-03-22T22:07:17.033Z,71.10
2019-03-22T22:09:37.680Z,70.80
2019-03-22T22:11:58.493Z,71.20
2019-03-22T22:14:19.061Z,72.00
2019-03-22T22:16:39.717Z,72.90
2019-03-22T22:19:00.240Z,72.30
2019-03-22T22:21:20.730Z,72.30
2019-03-22T22:23:41.210Z,72.50
2019-03-22T22:26:01.968Z,72.30
2019-03-22T22:28:22.521Z,71.90
2019-03-22T22:30:43.132Z,72.00
2019-03-22T22:33:03.757Z,72.20
2019-03-22T22:35:24.318Z,72.60
2019-03-22T22:37:45.130Z,72.80
2019-03-22T22:40:08.992Z,73.60
2019-03-22T22:42:29.501Z,72.90
2019-03-22T22:44:50.928Z,74.10
2019-03-22T22:47:11.560Z,73.50
2019-03-22T22:49:32.012Z,74.70
2019-03-22T22:51:52.494Z,73.90
2019-03-22T22:54:13.026Z,73.80
2019-03-22T22:56:33.761Z,73.80
2019-03-22T22:58:54.240Z,74.00
2019-03-22T23:01:14.845Z,74.30
2019-03-22T23:03:35.384Z,74.20
2019-03-22T23:05:55.987Z,74.10
2019-03-22T23:08:16.765Z,74.30
2019-03-22T23:10:37.277Z,74.60
2019-03-22T23:12:58.017Z,74.70
2019-03-22T23:15:18.676Z,74.60
2019-03-22T23:17:40.491Z,74.80
2019-03-22T23:20:21.834Z,75.10
2019-03-22T23:22:48.280Z,74.60
2019-03-22T23:25:09.112Z,75.00
2019-03-22T23:27:29.815Z,75.20
2019-03-22T23:29:50.290Z,75.60
2019-03-22T23:32:10.933Z,76.00
2019-03-22T23:34:31.633Z,76.10
2019-03-22T23:36:52.364Z,76.00
2019-03-22T23:39:13.049Z,76.20
2019-03-22T23:41:33.666Z,76.30
2019-03-22T23:43:54.226Z,76.60
2019-03-22T23:46:14.737Z,77.00
2019-03-22T23:48:49.038Z,76.90
2019-03-22T23:51:09.345Z,77.30
2019-03-22T23:53:29.956Z,77.30
2019-03-22T23:55:50.479Z,77.60
2019-03-22T23:58:11.178Z,77.90
